Time;durP1;ratioP1;P1;durP2;ratioP2;P2;SDS_P1;SDS_P2;PMS_P1;PMS_P2;Temp;Humidity;BMP_temperature;BMP_pressure;BME280_temperature;BME280_humidity;BME280_pressure;Samples;Min_cycle;Max_cycle;Signal;HPM_P1;HPM_P2
2022/10/03 00:00:03;;;;;;;0.00;0.00;;;;;;;;;;4955204;28;20285;-72
2022/10/03 00:02:46;;;;;;;0.00;0.00;;;;;;;;;;4952968;28;20226;-71
2022/10/03 00:05:25;;;;;;;0.00;0.00;;;;;;;;;;4971815;28;20289;-73
2022/10/03 00:08:03;;;;;;;0.00;0.00;;;;;;;;;;4954909;28;20246;-73
2022/10/03 00:10:36;;;;;;;0.00;0.00;;;;;;;;;;4969728;28;21227;-71
2022/10/03 00:13:06;;;;;;;0.00;0.00;;;;;;;;;;4956770;28;20206;-72
2022/10/03 00:15:38;;;;;;;0.00;0.00;;;;;;;;;;4969440;28;20210;-73
2022/10/03 00:18:14;;;;;;;0.00;0.00;;;;;;;;;;4969871;28;20747;-74
2022/10/03 00:20:48;;;;;;;0.00;0.00;;;;;;;;;;4955862;28;20286;-73
2022/10/03 00:23:19;;;;;;;0.00;0.00;;;;;;;;;;4952308;28;20221;-72
2022/10/03 00:25:51;;;;;;;0.00;0.00;;;;;;;;;;4956867;28;20211;-67
2022/10/03 00:28:25;;;;;;;0.00;0.00;;;;;;;;;;4960341;28;20190;-69
2022/10/03 00:30:59;;;;;;;0.10;0.10;;;;;;;;;;4966608;28;20246;-68
2022/10/03 00:33:33;;;;;;;0.00;0.00;;;;;;;;;;4952516;28;20191;-67
2022/10/03 00:36:03;;;;;;;0.00;0.00;;;;;;;;;;4955538;28;20230;-67
2022/10/03 00:38:54;;;;;;;0.00;0.00;;;;;;;;;;4951168;28;20282;-67
2022/10/03 00:41:38;;;;;;;0.00;0.00;;;;;;;;;;4958471;28;20316;-69
2022/10/03 00:44:23;;;;;;;0.07;0.07;;;;;;;;;;4954883;28;20219;-69
2022/10/03 00:47:18;;;;;;;0.00;0.00;;;;;;;;;;4953840;28;20228;-66
2022/10/03 00:50:01;;;;;;;0.00;0.00;;;;;;;;;;4945344;28;20209;-69
2022/10/03 00:52:42;;;;;;;0.00;0.00;;;;;;;;;;4954811;28;20202;-69
2022/10/03 00:55:15;;;;;;;0.00;0.00;;;;;;;;;;4956511;28;20359;-68
2022/10/03 00:57:55;;;;;;;0.03;0.03;;;;;;;;;;4953420;28;20277;-68
2022/10/03 01:00:24;;;;;;;0.03;0.03;;;;;;;;;;4954494;28;20505;-68
2022/10/03 01:02:59;;;;;;;0.10;0.10;;;;;;;;;;4956257;28;20220;-69
2022/10/03 01:05:33;;;;;;;0.10;0.10;;;;;;;;;;4954264;28;20202;-69
2022/10/03 01:08:23;;;;;;;0.00;0.00;;;;;;;;;;4967881;28;20232;-69
2022/10/03 01:10:54;;;;;;;0.10;0.10;;;;;;;;;;4952316;28;20211;-67
2022/10/03 01:13:30;;;;;;;0.00;0.00;;;;;;;;;;4967766;28;20207;-67
2022/10/03 01:16:02;;;;;;;0.00;0.00;;;;;;;;;;4953137;28;20201;-69
2022/10/03 01:18:38;;;;;;;0.00;0.00;;;;;;;;;;4970063;28;20202;-68
2022/10/03 01:21:12;;;;;;;0.00;0.00;;;;;;;;;;4953145;28;20284;-69
2022/10/03 01:24:04;;;;;;;0.03;0.03;;;;;;;;;;4955636;28;20250;-71
2022/10/03 01:26:48;;;;;;;0.00;0.00;;;;;;;;;;4970094;28;20226;-70
2022/10/03 01:32:24;;;;;;;0.00;0.00;;;;;;;;;;4935729;28;20225;-72
2022/10/03 01:34:55;;;;;;;0.00;0.00;;;;;;;;;;4957503;28;20202;-72
2022/10/03 01:37:28;;;;;;;0.00;0.00;;;;;;;;;;4950761;28;20234;-71
2022/10/03 01:39:58;;;;;;;0.00;0.00;;;;;;;;;;4954842;28;20239;-67
2022/10/03 01:42:35;;;;;;;0.00;0.00;;;;;;;;;;4953261;28;20505;-68
2022/10/03 01:45:12;;;;;;;0.00;0.00;;;;;;;;;;4957459;28;20201;-69
2022/10/03 01:47:46;;;;;;;0.03;0.03;;;;;;;;;;4952997;28;20222;-68
2022/10/03 01:50:19;;;;;;;0.10;0.10;;;;;;;;;;4958922;28;20279;-69
2022/10/03 01:52:50;;;;;;;0.10;0.10;;;;;;;;;;4968448;28;20206;-71
2022/10/03 01:55:22;;;;;;;0.00;0.00;;;;;;;;;;4954377;28;20205;-74
2022/10/03 01:57:54;;;;;;;0.00;0.00;;;;;;;;;;4954585;28;20231;-72
2022/10/03 02:00:25;;;;;;;0.00;0.00;;;;;;;;;;4952464;28;20212;-72
2022/10/03 02:02:55;;;;;;;0.10;0.10;;;;;;;;;;4969901;28;20214;-74
2022/10/03 02:05:29;;;;;;;0.00;0.00;;;;;;;;;;4971554;28;20237;-71
2022/10/03 02:08:04;;;;;;;0.00;0.00;;;;;;;;;;4954543;28;20229;-72
2022/10/03 02:10:35;;;;;;;0.00;0.00;;;;;;;;;;4951478;28;20225;-74
2022/10/03 02:13:08;;;;;;;0.00;0.00;;;;;;;;;;4969149;28;20210;-72
2022/10/03 02:15:45;;;;;;;0.00;0.00;;;;;;;;;;4970282;28;20210;-73
2022/10/03 02:18:16;;;;;;;0.00;0.00;;;;;;;;;;4953833;28;20285;-71
2022/10/03 02:20:46;;;;;;;0.00;0.00;;;;;;;;;;4965996;28;20312;-73
2022/10/03 02:23:31;;;;;;;0.00;0.00;;;;;;;;;;4967231;28;20229;-71
2022/10/03 02:26:04;;;;;;;0.00;0.00;;;;;;;;;;4941912;28;20237;-71
2022/10/03 02:28:54;;;;;;;0.00;0.00;;;;;;;;;;4954951;28;20293;-71
2022/10/03 02:31:42;;;;;;;0.00;0.00;;;;;;;;;;4958155;28;20207;-71
2022/10/03 02:34:23;;;;;;;0.00;0.00;;;;;;;;;;4962893;28;20194;-71
2022/10/03 02:37:00;;;;;;;0.00;0.00;;;;;;;;;;4958493;28;20226;-71
2022/10/03 02:39:39;;;;;;;0.00;0.00;;;;;;;;;;4965746;28;20217;-71
2022/10/03 02:42:25;;;;;;;0.03;0.03;;;;;;;;;;4968838;28;20202;-72
2022/10/03 02:45:07;;;;;;;0.00;0.00;;;;;;;;;;4959639;28;20213;-71
2022/10/03 02:48:02;;;;;;;0.00;0.00;;;;;;;;;;4969990;28;20576;-70
2022/10/03 02:50:41;;;;;;;0.00;0.00;;;;;;;;;;4951449;28;20207;-72
2022/10/03 02:53:19;;;;;;;0.00;0.00;;;;;;;;;;4952428;28;20203;-71
2022/10/03 02:56:02;;;;;;;0.00;0.00;;;;;;;;;;4965937;28;20206;-71
2022/10/03 02:58:46;;;;;;;0.00;0.00;;;;;;;;;;4950760;28;20286;-74
2022/10/03 03:01:27;;;;;;;0.00;0.00;;;;;;;;;;4952415;28;20217;-72
2022/10/03 03:04:09;;;;;;;0.00;0.00;;;;;;;;;;4954071;28;20302;-72
2022/10/03 03:06:43;;;;;;;0.10;0.10;;;;;;;;;;4958688;28;20305;-71
2022/10/03 03:09:22;;;;;;;0.00;0.00;;;;;;;;;;4960871;28;20197;-72
2022/10/03 03:12:01;;;;;;;0.00;0.00;;;;;;;;;;4971584;28;20210;-72
2022/10/03 03:14:46;;;;;;;0.00;0.00;;;;;;;;;;4973238;28;20225;-74
2022/10/03 03:17:26;;;;;;;0.00;0.00;;;;;;;;;;4956516;28;20222;-73
2022/10/03 03:20:03;;;;;;;0.00;0.00;;;;;;;;;;4969886;28;20289;-72
2022/10/03 03:22:37;;;;;;;0.00;0.00;;;;;;;;;;4966731;28;20209;-74
2022/10/03 03:25:13;;;;;;;0.00;0.00;;;;;;;;;;4968134;28;20759;-71
2022/10/03 03:27:46;;;;;;;0.00;0.00;;;;;;;;;;4956288;28;20240;-71
2022/10/03 03:30:16;;;;;;;0.03;0.03;;;;;;;;;;4968057;28;20211;-73
2022/10/03 03:32:47;;;;;;;0.00;0.00;;;;;;;;;;4960254;28;20210;-72
2022/10/03 03:35:22;;;;;;;0.00;0.00;;;;;;;;;;4955614;28;20226;-71
2022/10/03 03:37:57;;;;;;;0.00;0.00;;;;;;;;;;4953840;28;20225;-71
2022/10/03 03:40:31;;;;;;;0.00;0.00;;;;;;;;;;4956669;28;20203;-72
2022/10/03 03:43:14;;;;;;;0.00;0.00;;;;;;;;;;4970050;28;20241;-71
2022/10/03 03:45:47;;;;;;;0.00;0.00;;;;;;;;;;4968761;28;20207;-71
2022/10/03 03:48:38;;;;;;;0.00;0.00;;;;;;;;;;4973378;28;20218;-72
2022/10/03 03:51:21;;;;;;;0.00;0.00;;;;;;;;;;4944782;28;20936;-72
2022/10/03 03:54:07;;;;;;;0.00;0.00;;;;;;;;;;4971620;28;20348;-71
2022/10/03 03:56:44;;;;;;;0.00;0.00;;;;;;;;;;4935008;28;20230;-72
2022/10/03 03:59:19;;;;;;;0.00;0.00;;;;;;;;;;4968533;28;20292;-71
2022/10/03 04:01:53;;;;;;;0.00;0.00;;;;;;;;;;4971124;28;20220;-72
2022/10/03 04:04:29;;;;;;;0.00;0.00;;;;;;;;;;4956375;28;20295;-73
2022/10/03 04:07:05;;;;;;;0.00;0.00;;;;;;;;;;4952803;28;20210;-72
2022/10/03 04:09:47;;;;;;;0.00;0.00;;;;;;;;;;4972057;28;20209;-73
2022/10/03 04:12:20;;;;;;;0.00;0.00;;;;;;;;;;4954136;28;20633;-71
2022/10/03 04:15:00;;;;;;;0.00;0.00;;;;;;;;;;4953759;28;20220;-71
2022/10/03 04:20:26;;;;;;;0.00;0.00;;;;;;;;;;4967935;28;20202;-71
2022/10/03 04:23:02;;;;;;;0.00;0.00;;;;;;;;;;4951421;28;20265;-72
2022/10/03 04:25:40;;;;;;;0.00;0.00;;;;;;;;;;4951878;28;20206;-70
2022/10/03 04:28:26;;;;;;;0.00;0.00;;;;;;;;;;4957699;28;20261;-71
2022/10/03 04:30:58;;;;;;;0.00;0.00;;;;;;;;;;4954213;28;20251;-72
2022/10/03 04:33:32;;;;;;;0.00;0.00;;;;;;;;;;4967328;28;20203;-70
2022/10/03 04:36:14;;;;;;;0.00;0.00;;;;;;;;;;4955529;28;20258;-71
2022/10/03 04:38:49;;;;;;;0.00;0.00;;;;;;;;;;4954427;28;20308;-70
2022/10/03 04:41:27;;;;;;;0.00;0.00;;;;;;;;;;4951170;28;20281;-72
2022/10/03 04:43:59;;;;;;;0.00;0.00;;;;;;;;;;4969176;28;20282;-72
2022/10/03 04:46:29;;;;;;;0.00;0.00;;;;;;;;;;4967294;28;20225;-73
2022/10/03 04:49:00;;;;;;;0.00;0.00;;;;;;;;;;4969868;28;20207;-72
2022/10/03 04:51:35;;;;;;;0.00;0.00;;;;;;;;;;4968053;28;20206;-71
2022/10/03 04:54:14;;;;;;;0.00;0.00;;;;;;;;;;4968439;28;20297;-74
2022/10/03 04:56:45;;;;;;;0.00;0.00;;;;;;;;;;4970901;28;20226;-71
2022/10/03 04:59:25;;;;;;;0.00;0.00;;;;;;;;;;4969808;28;20201;-72
2022/10/03 05:01:54;;;;;;;0.00;0.00;;;;;;;;;;4955034;28;20236;-71
2022/10/03 05:04:25;;;;;;;0.00;0.00;;;;;;;;;;4954188;28;20226;-72
2022/10/03 05:06:59;;;;;;;0.00;0.00;;;;;;;;;;4970340;28;20289;-72
2022/10/03 05:09:33;;;;;;;0.00;0.00;;;;;;;;;;4956278;28;20206;-70
2022/10/03 05:12:06;;;;;;;0.03;0.03;;;;;;;;;;4968915;28;20209;-71
2022/10/03 05:14:47;;;;;;;0.00;0.00;;;;;;;;;;4970929;28;20325;-71
2022/10/03 05:17:18;;;;;;;0.00;0.00;;;;;;;;;;4955179;28;20233;-70
2022/10/03 05:20:04;;;;;;;0.00;0.00;;;;;;;;;;4953846;28;20199;-74
2022/10/03 05:22:38;;;;;;;0.00;0.00;;;;;;;;;;4968539;28;20296;-70
2022/10/03 05:25:26;;;;;;;0.00;0.00;;;;;;;;;;4952286;28;20776;-72
2022/10/03 05:27:59;;;;;;;0.00;0.00;;;;;;;;;;4958665;28;20221;-71
2022/10/03 05:30:34;;;;;;;0.00;0.00;;;;;;;;;;4955125;28;20210;-70
2022/10/03 05:33:04;;;;;;;0.00;0.00;;;;;;;;;;4967751;28;20273;-70
2022/10/03 05:35:37;;;;;;;0.00;0.00;;;;;;;;;;4970634;28;20197;-71
2022/10/03 05:38:18;;;;;;;0.00;0.00;;;;;;;;;;4959131;28;20344;-70
2022/10/03 05:40:52;;;;;;;0.00;0.00;;;;;;;;;;4954907;28;20297;-72
2022/10/03 05:43:37;;;;;;;0.00;0.00;;;;;;;;;;4956194;28;20208;-72
2022/10/03 05:46:13;;;;;;;0.00;0.00;;;;;;;;;;4966807;28;20230;-70
2022/10/03 05:48:46;;;;;;;0.07;0.07;;;;;;;;;;4967119;28;20206;-71
2022/10/03 05:51:23;;;;;;;0.00;0.00;;;;;;;;;;4955313;28;20202;-72
2022/10/03 05:54:14;;;;;;;0.10;0.10;;;;;;;;;;4952732;28;20293;-69
2022/10/03 05:56:59;;;;;;;0.00;0.00;;;;;;;;;;4965516;28;20225;-72
2022/10/03 05:59:43;;;;;;;0.00;0.00;;;;;;;;;;4954728;28;20233;-69
2022/10/03 06:02:21;;;;;;;0.00;0.00;;;;;;;;;;4969534;28;20260;-70
2022/10/03 06:05:01;;;;;;;0.00;0.00;;;;;;;;;;4954235;28;20229;-70
2022/10/03 06:07:31;;;;;;;0.00;0.00;;;;;;;;;;4969308;28;20222;-73
2022/10/03 06:10:17;;;;;;;0.00;0.00;;;;;;;;;;4952897;28;20217;-72
2022/10/03 06:12:50;;;;;;;0.00;0.00;;;;;;;;;;4959961;28;20274;-69
2022/10/03 06:15:33;;;;;;;0.00;0.00;;;;;;;;;;4953609;28;20198;-71
2022/10/03 06:18:04;;;;;;;0.00;0.00;;;;;;;;;;4950519;28;20253;-71
2022/10/03 06:21:02;;;;;;;0.00;0.00;;;;;;;;;;4955232;28;20356;-69
2022/10/03 06:23:56;;;;;;;0.00;0.00;;;;;;;;;;4901863;29;20280;-71
2022/10/03 06:26:40;;;;;;;0.00;0.00;;;;;;;;;;4930132;28;20230;-69
2022/10/03 06:29:25;;;;;;;0.00;0.00;;;;;;;;;;4966614;28;20202;-70
2022/10/03 06:32:11;;;;;;;0.00;0.00;;;;;;;;;;4950023;28;20268;-72
2022/10/03 06:34:49;;;;;;;0.00;0.00;;;;;;;;;;4950953;28;20223;-72
2022/10/03 06:37:47;;;;;;;0.00;0.00;;;;;;;;;;4955348;28;20233;-70
2022/10/03 06:40:41;;;;;;;0.00;0.00;;;;;;;;;;4960272;28;20208;-74
2022/10/03 06:43:29;;;;;;;0.00;0.00;;;;;;;;;;4955421;28;20199;-70
2022/10/03 06:46:20;;;;;;;0.00;0.00;;;;;;;;;;4934945;28;20238;-72
2022/10/03 06:49:06;;;;;;;0.00;0.00;;;;;;;;;;4972953;28;20212;-72
2022/10/03 06:51:54;;;;;;;0.00;0.00;;;;;;;;;;4968876;28;20648;-73
2022/10/03 06:54:44;;;;;;;0.00;0.00;;;;;;;;;;4952375;28;20201;-70
2022/10/03 06:57:18;;;;;;;0.00;0.00;;;;;;;;;;4959586;28;20309;-70
2022/10/03 06:59:59;;;;;;;0.00;0.00;;;;;;;;;;4957982;28;20202;-71
2022/10/03 07:02:41;;;;;;;0.00;0.00;;;;;;;;;;4970063;28;20663;-71
2022/10/03 07:05:27;;;;;;;0.00;0.00;;;;;;;;;;4956594;28;20257;-70
2022/10/03 07:08:22;;;;;;;0.00;0.00;;;;;;;;;;4955234;28;20325;-70
2022/10/03 07:10:59;;;;;;;0.00;0.00;;;;;;;;;;4957451;28;20216;-70
2022/10/03 07:13:36;;;;;;;0.07;0.07;;;;;;;;;;4973993;28;20232;-73
2022/10/03 07:16:36;;;;;;;0.00;0.00;;;;;;;;;;4969529;28;20337;-72
2022/10/03 07:19:13;;;;;;;0.00;0.00;;;;;;;;;;4957368;28;20372;-70
2022/10/03 07:21:49;;;;;;;0.00;0.00;;;;;;;;;;4972591;28;20301;-74
2022/10/03 07:24:27;;;;;;;0.00;0.00;;;;;;;;;;4956367;28;20250;-72
2022/10/03 07:27:07;;;;;;;0.00;0.00;;;;;;;;;;4955870;28;20226;-74
2022/10/03 07:29:40;;;;;;;0.00;0.00;;;;;;;;;;4959150;28;20293;-70
2022/10/03 07:32:16;;;;;;;0.00;0.00;;;;;;;;;;4974089;28;20202;-66
2022/10/03 07:35:07;;;;;;;0.00;0.00;;;;;;;;;;4970558;28;20202;-67
2022/10/03 07:40:58;;;;;;;0.00;0.00;;;;;;;;;;4958109;28;20197;-66
2022/10/03 07:43:39;;;;;;;0.00;0.00;;;;;;;;;;4970443;28;20222;-69
2022/10/03 07:46:15;;;;;;;0.00;0.00;;;;;;;;;;4976415;28;20254;-69
2022/10/03 07:48:52;;;;;;;0.00;0.00;;;;;;;;;;4955852;28;20202;-67
2022/10/03 07:51:23;;;;;;;0.00;0.00;;;;;;;;;;4968572;28;20210;-69
2022/10/03 07:54:17;;;;;;;0.00;0.00;;;;;;;;;;4956799;28;20234;-69
2022/10/03 07:56:52;;;;;;;0.00;0.00;;;;;;;;;;4953269;28;20214;-68
2022/10/03 07:59:46;;;;;;;0.00;0.00;;;;;;;;;;4967087;28;20212;-69
2022/10/03 08:02:26;;;;;;;0.00;0.00;;;;;;;;;;4956962;28;20203;-69
2022/10/03 08:05:14;;;;;;;0.00;0.00;;;;;;;;;;4970902;28;20218;-66
2022/10/03 08:07:51;;;;;;;0.00;0.00;;;;;;;;;;4949074;28;20250;-68
2022/10/03 08:10:29;;;;;;;0.00;0.00;;;;;;;;;;4954131;28;20266;-67
2022/10/03 08:13:14;;;;;;;0.00;0.00;;;;;;;;;;4973241;28;20203;-67
2022/10/03 08:15:53;;;;;;;0.00;0.00;;;;;;;;;;4957177;28;20202;-67
2022/10/03 08:18:38;;;;;;;0.00;0.00;;;;;;;;;;4956860;28;20289;-68
2022/10/03 08:21:10;;;;;;;0.00;0.00;;;;;;;;;;4965645;28;20211;-68
2022/10/03 08:23:54;;;;;;;0.00;0.00;;;;;;;;;;4966430;28;20218;-67
2022/10/03 08:26:32;;;;;;;0.00;0.00;;;;;;;;;;4955544;28;20236;-68
2022/10/03 08:29:08;;;;;;;0.00;0.00;;;;;;;;;;4966938;28;20706;-68
2022/10/03 08:31:45;;;;;;;0.00;0.00;;;;;;;;;;4967298;28;20206;-68
2022/10/03 08:34:25;;;;;;;0.00;0.00;;;;;;;;;;4969448;28;20216;-68
2022/10/03 08:37:16;;;;;;;0.00;0.00;;;;;;;;;;4970189;28;20255;-68
2022/10/03 08:39:53;;;;;;;0.00;0.00;;;;;;;;;;4953492;28;20672;-68
2022/10/03 08:42:33;;;;;;;0.00;0.00;;;;;;;;;;4956660;28;20229;-68
2022/10/03 08:45:15;;;;;;;0.00;0.00;;;;;;;;;;4953753;28;20214;-68
2022/10/03 08:47:56;;;;;;;0.00;0.00;;;;;;;;;;4968381;28;20222;-67
2022/10/03 08:50:51;;;;;;;0.00;0.00;;;;;;;;;;4952852;28;20587;-69
2022/10/03 08:53:47;;;;;;;0.00;0.00;;;;;;;;;;4921279;28;20202;-68
2022/10/03 08:56:16;;;;;;;0.00;0.00;;;;;;;;;;4968764;28;20317;-68
2022/10/03 08:58:57;;;;;;;0.00;0.00;;;;;;;;;;4953313;28;20554;-72
2022/10/03 09:01:29;;;;;;;0.00;0.00;;;;;;;;;;4954119;28;20198;-72
2022/10/03 09:04:18;;;;;;;0.00;0.00;;;;;;;;;;4954186;28;20194;-72
2022/10/03 09:06:59;;;;;;;0.00;0.00;;;;;;;;;;4962321;28;20236;-73
2022/10/03 09:09:41;;;;;;;0.00;0.00;;;;;;;;;;4972834;28;20206;-71
2022/10/03 09:12:27;;;;;;;0.00;0.00;;;;;;;;;;4970824;28;20207;-73
2022/10/03 09:15:10;;;;;;;0.00;0.00;;;;;;;;;;4957815;28;20190;-72
2022/10/03 09:18:09;;;;;;;0.00;0.00;;;;;;;;;;4972594;28;20250;-73
2022/10/03 09:20:51;;;;;;;0.00;0.00;;;;;;;;;;4916498;29;20222;-71
2022/10/03 09:23:30;;;;;;;0.00;0.00;;;;;;;;;;4944676;28;20289;-71
2022/10/03 09:26:22;;;;;;;0.00;0.00;;;;;;;;;;4953935;28;20307;-72
2022/10/03 09:28:54;;;;;;;0.00;0.00;;;;;;;;;;4956485;28;20218;-72
2022/10/03 09:31:51;;;;;;;0.00;0.00;;;16.50;99.90;;;;;;4951153;28;20209;-71
2022/10/03 09:34:42;;;;;;;0.00;0.00;;;16.30;99.90;;;;;;4950165;28;20575;-71
2022/10/03 09:37:25;;;;;;;0.00;0.00;;;16.30;99.90;;;;;;4959779;28;20221;-74
2022/10/03 09:40:22;;;;;;;0.00;0.00;;;16.20;99.90;;;;;;4954831;28;20205;-72
2022/10/03 09:43:18;;;;;;;0.00;0.00;;;16.20;99.90;;;;;;4953972;28;20277;-71
2022/10/03 09:46:33;;;;;;;0.00;0.00;;;16.10;99.90;;;;;;4914357;28;20257;-72
2022/10/03 09:49:32;;;;;;;0.00;0.00;;;16.30;99.90;;;;;;4948714;28;20265;-74
2022/10/03 09:52:26;;;;;;;0.00;0.00;;;16.60;99.90;;;;;;4956707;28;20198;-71
2022/10/03 09:55:19;;;;;;;0.00;0.00;;;16.70;99.90;;;;;;4955783;28;20186;-70
2022/10/03 09:58:07;;;;;;;0.00;0.00;;;16.90;99.90;;;;;;4965749;28;20229;-72
2022/10/03 10:01:08;;;;;;;0.00;0.00;;;17.10;99.90;;;;;;4968570;28;20210;-72
2022/10/03 10:04:14;;;;;;;0.00;0.00;;;17.00;99.90;;;;;;4970841;28;20204;-71
2022/10/03 10:07:18;;;;;;;0.00;0.00;;;17.00;99.90;;;;;;4970659;28;20763;-73
2022/10/03 10:10:05;;;;;;;0.00;0.00;;;;;;;;;;4950870;28;20202;-71
2022/10/03 10:12:45;;;;;;;0.00;0.00;;;;;;;;;;4952695;28;20198;-74
2022/10/03 10:15:27;;;;;;;0.00;0.00;;;;;;;;;;4965666;28;20344;-72
2022/10/03 10:18:32;;;;;;;0.00;0.00;;;16.90;99.90;;;;;;4968107;28;20225;-72
2022/10/03 10:21:18;;;;;;;0.00;0.00;;;;;;;;;;4966034;28;20204;-71
2022/10/03 10:23:52;;;;;;;0.00;0.00;;;;;;;;;;4956956;28;20206;-71
2022/10/03 10:26:37;;;;;;;0.00;0.00;;;;;;;;;;4968964;28;20223;-72
2022/10/03 10:29:23;;;;;;;0.00;0.00;;;;;;;;;;4955558;28;20226;-69
2022/10/03 10:32:23;;;;;;;0.00;0.00;;;;;;;;;;4947785;28;20216;-69
2022/10/03 10:35:14;;;;;;;0.00;0.00;;;;;;;;;;4967651;28;20638;-68
2022/10/03 10:37:54;;;;;;;0.00;0.00;;;;;;;;;;4952892;28;20226;-69
2022/10/03 10:40:45;;;;;;;0.00;0.00;;;;;;;;;;4956773;28;20606;-69
2022/10/03 10:43:31;;;;;;;0.00;0.00;;;;;;;;;;4953698;28;20213;-69
2022/10/03 10:46:17;;;;;;;0.00;0.00;;;;;;;;;;4952346;28;20229;-69
2022/10/03 10:49:04;;;;;;;0.00;0.00;;;;;;;;;;4966733;28;20213;-69
2022/10/03 10:51:43;;;;;;;0.00;0.00;;;;;;;;;;4953527;28;20266;-69
2022/10/03 10:54:37;;;;;;;0.00;0.00;;;;;;;;;;4950848;28;20202;-68
2022/10/03 10:57:10;;;;;;;0.00;0.00;;;;;;;;;;4939427;28;20242;-69
2022/10/03 10:59:56;;;;;;;0.00;0.00;;;;;;;;;;4951999;28;20199;-69
2022/10/03 11:02:47;;;;;;;0.00;0.00;;;;;;;;;;4956964;28;20207;-70
2022/10/03 11:05:38;;;;;;;0.00;0.00;;;;;;;;;;4968419;28;20222;-70
2022/10/03 11:08:30;;;;;;;0.00;0.00;;;;;;;;;;4967397;28;20225;-67
2022/10/03 11:11:23;;;;;;;0.00;0.00;;;;;;;;;;4970610;28;20202;-68
2022/10/03 11:14:10;;;;;;;0.00;0.00;;;;;;;;;;4958778;28;20205;-69
2022/10/03 11:17:05;;;;;;;0.00;0.00;;;;;;;;;;4949048;28;20222;-69
2022/10/03 11:20:00;;;;;;;0.00;0.00;;;;;;;;;;4969172;28;20203;-69
2022/10/03 11:22:49;;;;;;;0.00;0.00;;;;;;;;;;4923785;28;20630;-70
2022/10/03 11:25:40;;;;;;;0.00;0.00;;;;;;;;;;4949102;28;20222;-70
2022/10/03 11:28:32;;;;;;;0.00;0.00;;;;;;;;;;4941909;28;20227;-69
2022/10/03 11:31:24;;;;;;;0.00;0.00;;;;;;;;;;4969941;28;20206;-68
2022/10/03 11:34:01;;;;;;;0.00;0.00;;;;;;;;;;4967528;28;20277;-70
2022/10/03 11:36:56;;;;;;;0.00;0.00;;;;;;;;;;4967396;28;20757;-68
2022/10/03 11:39:28;;;;;;;0.00;0.00;;;;;;;;;;4924258;28;20206;-70
2022/10/03 11:41:59;;;;;;;0.00;0.00;;;;;;;;;;4971117;28;20297;-70
2022/10/03 11:44:30;;;;;;;0.00;0.00;;;;;;;;;;4973427;28;20205;-70
2022/10/03 11:47:07;;;;;;;0.00;0.00;;;;;;;;;;4953566;28;20236;-68
2022/10/03 11:49:46;;;;;;;0.00;0.00;;;;;;;;;;4966621;28;20216;-70
2022/10/03 11:52:23;;;;;;;0.00;0.00;;;;;;;;;;4956792;28;20217;-70
2022/10/03 11:54:52;;;;;;;0.00;0.00;;;;;;;;;;4971469;28;20296;-69
2022/10/03 11:57:28;;;;;;;0.00;0.00;;;;;;;;;;4954498;28;20225;-70
2022/10/03 12:00:02;;;;;;;0.00;0.00;;;;;;;;;;4973814;28;20297;-70
2022/10/03 12:02:48;;;;;;;0.00;0.00;;;;;;;;;;4953944;28;20218;-69
2022/10/03 12:05:20;;;;;;;0.00;0.00;;;;;;;;;;4966995;28;20209;-68
2022/10/03 12:10:39;;;;;;;0.00;0.00;;;;;;;;;;4955640;28;20267;-69
2022/10/03 12:13:13;;;;;;;0.00;0.00;;;;;;;;;;4969148;28;20227;-70
2022/10/03 12:15:46;;;;;;;0.00;0.00;;;;;;;;;;4966058;28;20615;-69
2022/10/03 12:18:16;;;;;;;0.00;0.00;;;;;;;;;;4953452;28;20226;-69
2022/10/03 12:21:05;;;;;;;0.00;0.00;;;;;;;;;;4955489;28;20217;-69
2022/10/03 12:23:41;;;;;;;0.00;0.00;;;;;;;;;;4970443;28;20698;-70
2022/10/03 12:26:14;;;;;;;0.00;0.00;;;;;;;;;;4954029;28;20230;-69
2022/10/03 12:28:45;;;;;;;0.00;0.00;;;;;;;;;;4955376;28;20194;-71
2022/10/03 12:31:17;;;;;;;0.00;0.00;;;;;;;;;;4957273;28;20209;-68
2022/10/03 12:33:48;;;;;;;0.00;0.00;;;;;;;;;;4969770;28;20205;-70
2022/10/03 12:36:18;;;;;;;0.00;0.00;;;;;;;;;;4951288;28;20229;-67
2022/10/03 12:38:55;;;;;;;0.00;0.00;;;;;;;;;;4958471;28;20210;-69
2022/10/03 12:41:26;;;;;;;0.00;0.00;;;;;;;;;;4968823;28;20313;-69
2022/10/03 12:44:04;;;;;;;0.00;0.00;;;;;;;;;;4956732;28;20227;-69
2022/10/03 12:46:38;;;;;;;0.00;0.00;;;;;;;;;;4971459;28;20229;-69
2022/10/03 12:49:10;;;;;;;0.00;0.00;;;;;;;;;;4967443;28;20285;-68
2022/10/03 12:51:43;;;;;;;0.00;0.00;;;;;;;;;;4966357;28;20273;-69
2022/10/03 12:54:17;;;;;;;0.00;0.00;;;;;;;;;;4951288;28;20201;-70
2022/10/03 12:56:49;;;;;;;0.00;0.00;;;;;;;;;;4953386;28;20716;-70
2022/10/03 12:59:22;;;;;;;0.00;0.00;;;;;;;;;;4970578;28;20207;-68
2022/10/03 13:02:07;;;;;;;0.00;0.00;;;;;;;;;;4955184;28;20229;-70
2022/10/03 13:04:41;;;;;;;0.00;0.00;;;;;;;;;;4948867;28;20214;-68
2022/10/03 13:07:17;;;;;;;0.00;0.00;;;;;;;;;;4970317;28;20700;-69
2022/10/03 13:09:56;;;;;;;0.00;0.00;;;;;;;;;;4952050;28;20225;-68
2022/10/03 13:12:30;;;;;;;0.00;0.00;;;;;;;;;;4972085;28;20599;-69
2022/10/03 13:15:17;;;;;;;0.00;0.00;;;;;;;;;;4952383;28;20202;-70
2022/10/03 13:17:49;;;;;;;0.00;0.00;;;;;;;;;;4969388;28;20233;-70
2022/10/03 13:20:21;;;;;;;0.00;0.00;;;;;;;;;;4949658;28;20256;-70
2022/10/03 13:22:53;;;;;;;0.00;0.00;;;;;;;;;;4969162;28;20202;-70
2022/10/03 13:25:22;;;;;;;0.00;0.00;;;;;;;;;;4965412;28;20215;-69
2022/10/03 13:27:53;;;;;;;0.00;0.00;;;;;;;;;;4953423;28;20225;-69
2022/10/03 13:30:21;;;;;;;0.00;0.00;;;;;;;;;;4950922;28;20236;-69
2022/10/03 13:32:51;;;;;;;0.00;0.00;;;;;;;;;;4953365;28;20202;-70
2022/10/03 13:38:17;;;;;;;0.00;0.00;;;;;;;;;;4952503;28;20216;-69
2022/10/03 13:40:48;;;;;;;0.00;0.00;;;;;;;;;;4952714;28;20210;-69
2022/10/03 13:43:18;;;;;;;0.00;0.00;;;;;;;;;;4967890;28;20606;-71
2022/10/03 13:45:48;;;;;;;0.00;0.00;;;;;;;;;;4947331;28;20207;-70
2022/10/03 13:48:18;;;;;;;0.00;0.00;;;;;;;;;;4953108;28;20581;-70
2022/10/03 13:50:54;;;;;;;0.00;0.00;;;;;;;;;;4954395;28;20210;-69
2022/10/03 13:53:26;;;;;;;0.00;0.00;;;;;;;;;;4953468;28;20201;-68
2022/10/03 13:55:55;;;;;;;0.00;0.00;;;;;;;;;;4954454;28;20289;-70
2022/10/03 13:58:31;;;;;;;0.00;0.00;;;;;;;;;;4966201;28;20202;-70
2022/10/03 14:01:10;;;;;;;0.00;0.00;;;;;;;;;;4967687;28;20205;-70
2022/10/03 14:03:41;;;;;;;0.00;0.00;;;;;;;;;;4970868;28;20296;-70
2022/10/03 14:06:17;;;;;;;0.00;0.00;;;;;;;;;;4966316;28;20335;-70
2022/10/03 14:09:01;;;;;;;0.00;0.00;;;;;;;;;;4953117;28;20210;-70
2022/10/03 14:11:35;;;;;;;0.00;0.00;;;;;;;;;;4959103;28;20230;-69
2022/10/03 14:14:12;;;;;;;0.00;0.00;;;;;;;;;;4951566;28;20198;-69
2022/10/03 14:16:41;;;;;;;0.00;0.00;;;;;;;;;;4965376;28;20214;-70
2022/10/03 14:19:13;;;;;;;0.00;0.00;;;;;;;;;;4948927;28;20250;-70
2022/10/03 14:21:46;;;;;;;0.00;0.00;;;;;;;;;;4969601;28;20203;-70
2022/10/03 14:24:30;;;;;;;0.00;0.00;;;;;;;;;;4951912;28;20261;-70
2022/10/03 14:27:02;;;;;;;0.00;0.00;;;;;;;;;;4954082;28;20218;-70
2022/10/03 14:29:35;;;;;;;0.00;0.00;;;;;;;;;;4967230;28;20210;-69
2022/10/03 14:32:06;;;;;;;0.00;0.00;;;;;;;;;;4959336;28;20198;-69
2022/10/03 14:34:39;;;;;;;0.00;0.00;;;;;;;;;;4953324;28;20293;-68
2022/10/03 14:37:12;;;;;;;0.00;0.00;;;;;;;;;;4953756;28;20349;-68
2022/10/03 14:39:41;;;;;;;0.00;0.00;;;;;;;;;;4949536;28;20226;-70
2022/10/03 14:42:17;;;;;;;0.00;0.00;;;;;;;;;;4968466;28;20210;-70
2022/10/03 14:44:46;;;;;;;0.00;0.00;;;;;;;;;;4952333;28;20208;-71
2022/10/03 14:47:15;;;;;;;0.00;0.00;;;;;;;;;;4952021;28;20230;-70
2022/10/03 14:49:48;;;;;;;0.00;0.00;;;;;;;;;;4953534;28;20207;-70
2022/10/03 14:52:24;;;;;;;0.00;0.00;;;;;;;;;;4966207;28;20213;-69
2022/10/03 14:54:54;;;;;;;0.00;0.00;;;;;;;;;;4965398;28;20224;-70
2022/10/03 14:57:25;;;;;;;0.00;0.00;;;;;;;;;;4948537;28;20763;-70
2022/10/03 14:59:57;;;;;;;0.00;0.00;;;;;;;;;;4956798;28;20198;-71
2022/10/03 15:02:28;;;;;;;0.00;0.00;;;;;;;;;;4954124;28;20290;-70
2022/10/03 15:04:58;;;;;;;0.00;0.00;;;;;;;;;;4971558;28;20217;-69
2022/10/03 15:07:35;;;;;;;0.00;0.00;;;;;;;;;;4971435;28;20238;-70
2022/10/03 15:10:05;;;;;;;0.00;0.00;;;;;;;;;;4969480;28;20237;-70
2022/10/03 15:12:33;;;;;;;0.00;0.00;;;;;;;;;;4965044;28;20208;-70
2022/10/03 15:15:03;;;;;;;0.00;0.00;;;;;;;;;;4956173;28;20217;-70
2022/10/03 15:17:32;;;;;;;0.00;0.00;;;;;;;;;;4968542;28;20223;-70
2022/10/03 15:20:00;;;;;;;0.00;0.00;;;;;;;;;;4955309;28;20664;-68
2022/10/03 15:22:29;;;;;;;0.00;0.00;;;;;;;;;;4973159;28;20229;-71
2022/10/03 15:25:01;;;;;;;0.00;0.00;;;;;;;;;;4966801;28;20254;-71
2022/10/03 15:27:29;;;;;;;0.00;0.00;;;;;;;;;;4969382;28;20229;-70
2022/10/03 15:29:58;;;;;;;0.00;0.00;;;;;;;;;;4970915;28;20277;-70
2022/10/03 15:32:28;;;;;;;0.00;0.00;;;;;;;;;;4952562;28;20229;-69
2022/10/03 15:34:59;;;;;;;0.00;0.00;;;;;;;;;;4954755;28;20212;-71
2022/10/03 15:37:32;;;;;;;0.00;0.00;;;;;;;;;;4971068;28;20224;-70
2022/10/03 15:40:03;;;;;;;0.00;0.00;;;;;;;;;;4958223;28;20330;-70
2022/10/03 15:42:33;;;;;;;0.00;0.00;;;;;;;;;;4951768;28;20701;-71
2022/10/03 15:45:04;;;;;;;0.00;0.00;;;;;;;;;;4954531;28;20305;-71
2022/10/03 15:47:33;;;;;;;0.00;0.00;;;;;;;;;;4967226;28;20321;-70
2022/10/03 15:50:02;;;;;;;0.00;0.00;;;;;;;;;;4970985;28;20292;-71
2022/10/03 15:52:33;;;;;;;0.00;0.00;;;;;;;;;;4961266;28;20211;-73
2022/10/03 15:55:04;;;;;;;0.00;0.00;;;;;;;;;;4953303;28;20209;-73
2022/10/03 15:57:33;;;;;;;0.00;0.00;;;;;;;;;;4969847;28;20246;-73
2022/10/03 16:00:01;;;;;;;0.00;0.00;;;;;;;;;;4954611;28;20201;-74